sensor_id;sensor_type;location;lat;lon;timestamp;pressure;altitude;pressure_sealevel;temperature;humidity
48015;BME280;33780;51.034;7.120;2023-04-02T00:08:57;99867.09;;;11.22;81.83
48015;BME280;33780;51.034;7.120;2023-04-02T00:11:38;99872.44;;;11.22;82.06
48015;BME280;33780;51.034;7.120;2023-04-02T00:14:14;99870.59;;;11.23;81.77
48015;BME280;33780;51.034;7.120;2023-04-02T00:16:40;99880.47;;;11.22;81.85
48015;BME280;33780;51.034;7.120;2023-04-02T00:19:10;99881.47;;;11.21;82.06
48015;BME280;33780;51.034;7.120;2023-04-02T00:21:38;99886.69;;;11.23;81.71
48015;BME280;33780;51.034;7.120;2023-04-02T00:24:19;99892.03;;;11.23;81.74
48015;BME280;33780;51.034;7.120;2023-04-02T00:26:47;99895.56;;;11.23;81.75
48015;BME280;33780;51.034;7.120;2023-04-02T00:29:15;99903.59;;;11.23;82.26
48015;BME280;33780;51.034;7.120;2023-04-02T00:31:51;99909.09;;;11.22;81.99
48015;BME280;33780;51.034;7.120;2023-04-02T00:34:21;99913.78;;;11.19;81.96
48015;BME280;33780;51.034;7.120;2023-04-02T00:36:48;99917.78;;;11.15;81.81
48015;BME280;33780;51.034;7.120;2023-04-02T00:39:21;99918.38;;;11.09;81.41
48015;BME280;33780;51.034;7.120;2023-04-02T00:41:48;99921.53;;;11.05;81.61
48015;BME280;33780;51.034;7.120;2023-04-02T00:44:23;99929.88;;;11.02;81.46
48015;BME280;33780;51.034;7.120;2023-04-02T00:46:49;99933.53;;;11.01;81.63
48015;BME280;33780;51.034;7.120;2023-04-02T00:49:28;99944.72;;;10.96;81.12
48015;BME280;33780;51.034;7.120;2023-04-02T00:51:59;99940.63;;;10.92;81.51
48015;BME280;33780;51.034;7.120;2023-04-02T00:54:30;99947.44;;;10.86;80.73
48015;BME280;33780;51.034;7.120;2023-04-02T00:56:57;99955.09;;;10.81;80.78
48015;BME280;33780;51.034;7.120;2023-04-02T00:59:32;99950.91;;;10.79;80.80
48015;BME280;33780;51.034;7.120;2023-04-02T01:02:19;99955.41;;;10.78;81.00
48015;BME280;33780;51.034;7.120;2023-04-02T01:11:05;99969.84;;;10.68;80.60
48015;BME280;33780;51.034;7.120;2023-04-02T01:13:42;99975.34;;;10.66;80.28
48015;BME280;33780;51.034;7.120;2023-04-02T01:21:38;99975.81;;;10.62;80.46
48015;BME280;33780;51.034;7.120;2023-04-02T01:24:09;99991.16;;;10.59;80.06
48015;BME280;33780;51.034;7.120;2023-04-02T01:29:21;99996.78;;;10.56;79.97
48015;BME280;33780;51.034;7.120;2023-04-02T01:31:49;100009.19;;;10.57;80.28
48015;BME280;33780;51.034;7.120;2023-04-02T01:34:19;100012.84;;;10.56;79.56
48015;BME280;33780;51.034;7.120;2023-04-02T01:37:01;100020.88;;;10.56;79.52
48015;BME280;33780;51.034;7.120;2023-04-02T01:42:18;100021.78;;;10.47;78.49
48015;BME280;33780;51.034;7.120;2023-04-02T01:44:52;100035.47;;;10.44;78.97
48015;BME280;33780;51.034;7.120;2023-04-02T01:47:21;100024.19;;;10.41;78.50
48015;BME280;33780;51.034;7.120;2023-04-02T01:49:48;100040.69;;;10.36;78.81
48015;BME280;33780;51.034;7.120;2023-04-02T01:52:25;100040.97;;;10.33;78.78
48015;BME280;33780;51.034;7.120;2023-04-02T01:54:57;100041.97;;;10.32;78.39
48015;BME280;33780;51.034;7.120;2023-04-02T01:57:23;100044.09;;;10.28;78.22
48015;BME280;33780;51.034;7.120;2023-04-02T01:59:49;100040.88;;;10.25;78.10
48015;BME280;33780;51.034;7.120;2023-04-02T02:02:14;100059.97;;;10.20;77.80
48015;BME280;33780;51.034;7.120;2023-04-02T02:04:40;100069.00;;;10.19;78.32
48015;BME280;33780;51.034;7.120;2023-04-02T02:07:10;100069.84;;;10.20;78.24
48015;BME280;33780;51.034;7.120;2023-04-02T02:09:38;100082.50;;;10.18;77.57
48015;BME280;33780;51.034;7.120;2023-04-02T02:12:04;100075.63;;;10.15;78.51
48015;BME280;33780;51.034;7.120;2023-04-02T02:14:30;100082.66;;;10.16;78.07
48015;BME280;33780;51.034;7.120;2023-04-02T02:16:58;100085.34;;;10.16;78.01
48015;BME280;33780;51.034;7.120;2023-04-02T02:19:33;100093.66;;;10.13;77.75
48015;BME280;33780;51.034;7.120;2023-04-02T02:22:12;100085.63;;;10.13;77.56
48015;BME280;33780;51.034;7.120;2023-04-02T02:24:42;100096.75;;;10.09;77.02
48015;BME280;33780;51.034;7.120;2023-04-02T02:27:40;100105.47;;;10.01;77.42
48015;BME280;33780;51.034;7.120;2023-04-02T02:30:16;100111.13;;;9.98;77.38
48015;BME280;33780;51.034;7.120;2023-04-02T02:33:10;100124.91;;;9.93;76.10
48015;BME280;33780;51.034;7.120;2023-04-02T02:35:48;100125.59;;;9.86;76.58
48015;BME280;33780;51.034;7.120;2023-04-02T02:40:57;100133.78;;;9.75;77.07
48015;BME280;33780;51.034;7.120;2023-04-02T02:43:25;100139.41;;;9.72;76.80
48015;BME280;33780;51.034;7.120;2023-04-02T02:45:52;100148.44;;;9.71;77.39
48015;BME280;33780;51.034;7.120;2023-04-02T02:48:20;100145.75;;;9.71;77.22
48015;BME280;33780;51.034;7.120;2023-04-02T02:50:48;100149.66;;;9.66;76.26
48015;BME280;33780;51.034;7.120;2023-04-02T02:53:19;100156.97;;;9.64;76.67
48015;BME280;33780;51.034;7.120;2023-04-02T02:55:46;100156.97;;;9.64;76.77
48015;BME280;33780;51.034;7.120;2023-04-02T02:58:25;100162.47;;;9.53;75.87
48015;BME280;33780;51.034;7.120;2023-04-02T03:00:53;100173.41;;;9.50;76.17
48015;BME280;33780;51.034;7.120;2023-04-02T03:03:21;100167.81;;;9.53;76.73
48015;BME280;33780;51.034;7.120;2023-04-02T03:05:57;100179.59;;;9.51;75.94
48015;BME280;33780;51.034;7.120;2023-04-02T03:08:33;100179.31;;;9.44;76.04
48015;BME280;33780;51.034;7.120;2023-04-02T03:11:11;100179.41;;;9.33;75.88
48015;BME280;33780;51.034;7.120;2023-04-02T03:13:39;100196.84;;;9.27;76.19
48015;BME280;33780;51.034;7.120;2023-04-02T03:21:21;100196.69;;;9.29;76.00
48015;BME280;33780;51.034;7.120;2023-04-02T03:26:40;100219.03;;;9.28;76.05
48015;BME280;33780;51.034;7.120;2023-04-02T03:29:18;100230.97;;;9.24;75.99
48015;BME280;33780;51.034;7.120;2023-04-02T03:32:06;100232.50;;;9.17;76.35
48015;BME280;33780;51.034;7.120;2023-04-02T03:34:47;100237.09;;;9.15;76.04
48015;BME280;33780;51.034;7.120;2023-04-02T03:37:25;100247.34;;;9.09;75.96
48015;BME280;33780;51.034;7.120;2023-04-02T03:39:59;100257.72;;;9.03;76.66
48015;BME280;33780;51.034;7.120;2023-04-02T03:42:39;100252.06;;;8.96;76.10
48015;BME280;33780;51.034;7.120;2023-04-02T03:47:42;100265.28;;;8.98;76.99
48015;BME280;33780;51.034;7.120;2023-04-02T03:52:50;100270.94;;;9.04;76.33
48015;BME280;33780;51.034;7.120;2023-04-02T03:55:19;100281.41;;;8.96;76.14
48015;BME280;33780;51.034;7.120;2023-04-02T03:57:55;100287.50;;;8.98;76.83
48015;BME280;33780;51.034;7.120;2023-04-02T04:00:33;100297.63;;;9.04;76.78
48015;BME280;33780;51.034;7.120;2023-04-02T04:03:15;100305.22;;;9.09;76.44
48015;BME280;33780;51.034;7.120;2023-04-02T04:05:50;100304.34;;;8.99;75.27
48015;BME280;33780;51.034;7.120;2023-04-02T04:08:19;100306.09;;;8.89;75.35
48015;BME280;33780;51.034;7.120;2023-04-02T04:10:50;100318.03;;;8.85;75.32
48015;BME280;33780;51.034;7.120;2023-04-02T04:13:19;100324.91;;;8.87;76.44
48015;BME280;33780;51.034;7.120;2023-04-02T04:16:06;100321.66;;;8.84;75.49
48015;BME280;33780;51.034;7.120;2023-04-02T04:18:53;100322.50;;;8.84;76.02
48015;BME280;33780;51.034;7.120;2023-04-02T04:21:24;100324.06;;;8.87;76.30
48015;BME280;33780;51.034;7.120;2023-04-02T04:24:11;100337.09;;;8.80;74.93
48015;BME280;33780;51.034;7.120;2023-04-02T04:26:52;100344.75;;;8.73;75.12
48015;BME280;33780;51.034;7.120;2023-04-02T04:29:40;100356.72;;;8.79;75.54
48015;BME280;33780;51.034;7.120;2023-04-02T04:32:18;100358.53;;;8.78;75.61
48015;BME280;33780;51.034;7.120;2023-04-02T04:34:54;100368.13;;;8.81;75.26
48015;BME280;33780;51.034;7.120;2023-04-02T04:37:29;100383.41;;;8.79;75.45
48015;BME280;33780;51.034;7.120;2023-04-02T04:40:10;100371.28;;;8.75;74.63
48015;BME280;33780;51.034;7.120;2023-04-02T04:42:40;100385.28;;;8.67;75.12
48015;BME280;33780;51.034;7.120;2023-04-02T04:47:53;100399.13;;;8.61;75.60
48015;BME280;33780;51.034;7.120;2023-04-02T04:50:37;100402.66;;;8.62;75.34
48015;BME280;33780;51.034;7.120;2023-04-02T04:53:07;100406.25;;;8.61;75.60
48015;BME280;33780;51.034;7.120;2023-04-02T04:55:38;100413.19;;;8.63;75.79
48015;BME280;33780;51.034;7.120;2023-04-02T04:58:15;100431.88;;;8.63;74.95
48015;BME280;33780;51.034;7.120;2023-04-02T05:00:52;100434.31;;;8.55;73.90
48015;BME280;33780;51.034;7.120;2023-04-02T05:03:40;100438.66;;;8.56;75.47
48015;BME280;33780;51.034;7.120;2023-04-02T05:08:46;100453.56;;;8.59;74.84
48015;BME280;33780;51.034;7.120;2023-04-02T05:11:30;100457.19;;;8.58;74.64
48015;BME280;33780;51.034;7.120;2023-04-02T05:14:01;100457.78;;;8.61;75.19
48015;BME280;33780;51.034;7.120;2023-04-02T05:16:42;100465.69;;;8.63;75.32
48015;BME280;33780;51.034;7.120;2023-04-02T05:19:15;100470.06;;;8.64;74.88
48015;BME280;33780;51.034;7.120;2023-04-02T05:21:47;100476.13;;;8.66;75.13
48015;BME280;33780;51.034;7.120;2023-04-02T05:27:18;100488.22;;;8.59;75.06
48015;BME280;33780;51.034;7.120;2023-04-02T05:29:53;100489.34;;;8.56;74.50
48015;BME280;33780;51.034;7.120;2023-04-02T05:32:36;100510.06;;;8.53;74.52
48015;BME280;33780;51.034;7.120;2023-04-02T05:35:05;100502.78;;;8.55;74.85
48015;BME280;33780;51.034;7.120;2023-04-02T05:37:31;100504.63;;;8.54;75.00
48015;BME280;33780;51.034;7.120;2023-04-02T05:40:08;100507.88;;;8.58;75.10
48015;BME280;33780;51.034;7.120;2023-04-02T05:42:38;100515.28;;;8.65;75.02
48015;BME280;33780;51.034;7.120;2023-04-02T05:45:25;100518.78;;;8.66;73.80
48015;BME280;33780;51.034;7.120;2023-04-02T05:47:55;100535.66;;;8.66;74.11
48015;BME280;33780;51.034;7.120;2023-04-02T05:50:35;100531.53;;;8.62;72.85
48015;BME280;33780;51.034;7.120;2023-04-02T05:53:12;100537.72;;;8.63;74.18
48015;BME280;33780;51.034;7.120;2023-04-02T05:56:04;100543.53;;;8.57;73.38
48015;BME280;33780;51.034;7.120;2023-04-02T05:58:43;100559.78;;;8.54;73.79
48015;BME280;33780;51.034;7.120;2023-04-02T06:01:20;100563.66;;;8.50;73.84
48015;BME280;33780;51.034;7.120;2023-04-02T06:04:05;100568.41;;;8.46;73.92
48015;BME280;33780;51.034;7.120;2023-04-02T06:09:29;100573.50;;;8.49;74.10
48015;BME280;33780;51.034;7.120;2023-04-02T06:12:16;100591.31;;;8.48;73.20
48015;BME280;33780;51.034;7.120;2023-04-02T06:14:44;100582.09;;;8.53;73.70
48015;BME280;33780;51.034;7.120;2023-04-02T06:17:13;100605.13;;;8.54;73.00
48015;BME280;33780;51.034;7.120;2023-04-02T06:19:40;100596.53;;;8.50;73.55
48015;BME280;33780;51.034;7.120;2023-04-02T06:22:22;100611.44;;;8.53;73.77
48015;BME280;33780;51.034;7.120;2023-04-02T06:24:52;100614.56;;;8.58;73.97
48015;BME280;33780;51.034;7.120;2023-04-02T06:27:22;100628.03;;;8.56;73.06
48015;BME280;33780;51.034;7.120;2023-04-02T06:29:52;100630.22;;;8.51;73.58
48015;BME280;33780;51.034;7.120;2023-04-02T06:32:22;100638.81;;;8.55;72.79
48015;BME280;33780;51.034;7.120;2023-04-02T06:34:50;100646.09;;;8.53;73.63
48015;BME280;33780;51.034;7.120;2023-04-02T06:37:32;100658.59;;;8.52;73.06
48015;BME280;33780;51.034;7.120;2023-04-02T06:39:59;100662.47;;;8.48;72.50
48015;BME280;33780;51.034;7.120;2023-04-02T06:42:27;100663.16;;;8.39;71.96
48015;BME280;33780;51.034;7.120;2023-04-02T06:44:55;100669.44;;;8.27;72.88
48015;BME280;33780;51.034;7.120;2023-04-02T06:47:34;100681.03;;;8.26;72.30
48015;BME280;33780;51.034;7.120;2023-04-02T06:52:44;100679.34;;;8.25;72.32
48015;BME280;33780;51.034;7.120;2023-04-02T06:57:45;100696.31;;;8.24;73.41
48015;BME280;33780;51.034;7.120;2023-04-02T07:00:27;100713.28;;;8.23;72.22
48015;BME280;33780;51.034;7.120;2023-04-02T07:02:56;100706.44;;;8.07;71.82
48015;BME280;33780;51.034;7.120;2023-04-02T07:05:24;100720.00;;;8.04;72.62
48015;BME280;33780;51.034;7.120;2023-04-02T07:07:49;100745.03;;;7.91;72.28
48015;BME280;33780;51.034;7.120;2023-04-02T07:10:14;100730.63;;;7.93;72.97
48015;BME280;33780;51.034;7.120;2023-04-02T07:12:40;100726.75;;;7.97;72.95
48015;BME280;33780;51.034;7.120;2023-04-02T07:15:06;100735.25;;;8.02;73.17
48015;BME280;33780;51.034;7.120;2023-04-02T07:17:31;100743.97;;;8.04;72.12
48015;BME280;33780;51.034;7.120;2023-04-02T07:19:56;100751.13;;;8.04;72.00
48015;BME280;33780;51.034;7.120;2023-04-02T07:22:21;100769.91;;;8.02;72.23
48015;BME280;33780;51.034;7.120;2023-04-02T07:24:47;100774.72;;;7.97;72.10
48015;BME280;33780;51.034;7.120;2023-04-02T07:27:13;100782.59;;;7.99;72.62
48015;BME280;33780;51.034;7.120;2023-04-02T07:29:39;100780.91;;;7.98;72.40
48015;BME280;33780;51.034;7.120;2023-04-02T07:32:13;100786.00;;;8.01;72.49
48015;BME280;33780;51.034;7.120;2023-04-02T07:34:39;100802.72;;;8.03;71.88
48015;BME280;33780;51.034;7.120;2023-04-02T07:37:05;100799.94;;;8.04;72.10
48015;BME280;33780;51.034;7.120;2023-04-02T07:39:30;100804.88;;;7.98;71.93
48015;BME280;33780;51.034;7.120;2023-04-02T07:42:00;100815.19;;;8.02;72.12
48015;BME280;33780;51.034;7.120;2023-04-02T07:44:26;100818.50;;;8.06;72.25
48015;BME280;33780;51.034;7.120;2023-04-02T07:46:51;100812.31;;;8.05;71.61
48015;BME280;33780;51.034;7.120;2023-04-02T07:49:17;100822.66;;;8.10;71.56
48015;BME280;33780;51.034;7.120;2023-04-02T07:51:42;100820.72;;;8.12;71.92
48015;BME280;33780;51.034;7.120;2023-04-02T07:54:07;100826.56;;;8.17;72.07
48015;BME280;33780;51.034;7.120;2023-04-02T07:56:35;100830.91;;;8.18;71.54
48015;BME280;33780;51.034;7.120;2023-04-02T07:59:01;100838.91;;;8.18;70.89
48015;BME280;33780;51.034;7.120;2023-04-02T08:01:29;100845.31;;;8.15;71.47
48015;BME280;33780;51.034;7.120;2023-04-02T08:04:00;100855.25;;;8.13;70.79
48015;BME280;33780;51.034;7.120;2023-04-02T08:06:26;100853.97;;;8.06;71.29
48015;BME280;33780;51.034;7.120;2023-04-02T08:08:51;100855.06;;;8.04;71.05
48015;BME280;33780;51.034;7.120;2023-04-02T08:11:20;100859.66;;;8.02;71.33
48015;BME280;33780;51.034;7.120;2023-04-02T08:13:45;100863.16;;;8.02;71.32
48015;BME280;33780;51.034;7.120;2023-04-02T08:16:11;100875.09;;;8.09;71.59
48015;BME280;33780;51.034;7.120;2023-04-02T08:18:36;100887.25;;;8.13;71.32
48015;BME280;33780;51.034;7.120;2023-04-02T08:21:08;100878.91;;;8.18;71.33
48015;BME280;33780;51.034;7.120;2023-04-02T08:23:34;100896.38;;;8.22;71.00
48015;BME280;33780;51.034;7.120;2023-04-02T08:26:07;100895.28;;;8.25;71.42
48015;BME280;33780;51.034;7.120;2023-04-02T08:28:33;100907.44;;;8.29;71.47
48015;BME280;33780;51.034;7.120;2023-04-02T08:31:01;100916.84;;;8.34;71.46
48015;BME280;33780;51.034;7.120;2023-04-02T08:33:28;100924.59;;;8.37;70.95
48015;BME280;33780;51.034;7.120;2023-04-02T08:35:54;100927.38;;;8.23;70.00
48015;BME280;33780;51.034;7.120;2023-04-02T08:38:20;100925.38;;;8.27;71.01
48015;BME280;33780;51.034;7.120;2023-04-02T08:40:51;100934.97;;;8.29;70.59
48015;BME280;33780;51.034;7.120;2023-04-02T08:43:32;100934.97;;;8.29;69.97
48015;BME280;33780;51.034;7.120;2023-04-02T08:46:16;100944.56;;;8.32;70.39
48015;BME280;33780;51.034;7.120;2023-04-02T08:48:48;100955.66;;;8.38;70.05
48015;BME280;33780;51.034;7.120;2023-04-02T08:51:23;100968.88;;;8.27;69.23
48015;BME280;33780;51.034;7.120;2023-04-02T08:53:50;100961.94;;;8.25;70.44
48015;BME280;33780;51.034;7.120;2023-04-02T08:56:22;100977.53;;;8.18;69.93
48015;BME280;33780;51.034;7.120;2023-04-02T08:58:55;100975.81;;;8.17;70.30
48015;BME280;33780;51.034;7.120;2023-04-02T09:04:06;100993.50;;;8.31;70.37
48015;BME280;33780;51.034;7.120;2023-04-02T09:06:37;100995.88;;;8.35;70.13
48015;BME280;33780;51.034;7.120;2023-04-02T09:09:02;100994.25;;;8.33;69.39
48015;BME280;33780;51.034;7.120;2023-04-02T09:11:34;101011.88;;;8.35;70.07
48015;BME280;33780;51.034;7.120;2023-04-02T09:14:04;101011.44;;;8.29;69.24
48015;BME280;33780;51.034;7.120;2023-04-02T09:16:43;101013.44;;;8.25;69.65
48015;BME280;33780;51.034;7.120;2023-04-02T09:19:37;101015.59;;;8.20;68.95
48015;BME280;33780;51.034;7.120;2023-04-02T09:24:33;101018.38;;;8.18;69.42
48015;BME280;33780;51.034;7.120;2023-04-02T09:26:58;101030.28;;;8.26;69.69
48015;BME280;33780;51.034;7.120;2023-04-02T09:29:38;101026.25;;;8.33;69.70
48015;BME280;33780;51.034;7.120;2023-04-02T09:32:13;101035.53;;;8.40;69.62
48015;BME280;33780;51.034;7.120;2023-04-02T09:34:43;101042.16;;;8.47;69.70
48015;BME280;33780;51.034;7.120;2023-04-02T09:37:18;101047.47;;;8.47;69.21
48015;BME280;33780;51.034;7.120;2023-04-02T09:39:45;101047.25;;;8.50;69.27
48015;BME280;33780;51.034;7.120;2023-04-02T09:42:34;101061.66;;;8.47;68.04
48015;BME280;33780;51.034;7.120;2023-04-02T09:45:24;101062.41;;;8.50;68.80
48015;BME280;33780;51.034;7.120;2023-04-02T09:47:51;101065.81;;;8.52;68.55
48015;BME280;33780;51.034;7.120;2023-04-02T09:50:30;101066.66;;;8.52;68.41
48015;BME280;33780;51.034;7.120;2023-04-02T09:52:56;101078.19;;;8.53;67.56
48015;BME280;33780;51.034;7.120;2023-04-02T09:55:24;101079.78;;;8.55;69.02
48015;BME280;33780;51.034;7.120;2023-04-02T09:58:25;101089.38;;;8.58;68.16
48015;BME280;33780;51.034;7.120;2023-04-02T10:00:51;101100.78;;;8.60;68.01
48015;BME280;33780;51.034;7.120;2023-04-02T10:03:24;101105.16;;;8.61;67.98
48015;BME280;33780;51.034;7.120;2023-04-02T10:06:12;101099.63;;;8.64;67.81
48015;BME280;33780;51.034;7.120;2023-04-02T10:08:42;101126.69;;;8.70;67.44
48015;BME280;33780;51.034;7.120;2023-04-02T10:11:25;101115.69;;;8.75;68.13
48015;BME280;33780;51.034;7.120;2023-04-02T10:13:56;101127.34;;;8.74;67.25
48015;BME280;33780;51.034;7.120;2023-04-02T10:17:00;101138.97;;;8.73;67.52
48015;BME280;33780;51.034;7.120;2023-04-02T10:19:32;101142.50;;;8.73;67.13
48015;BME280;33780;51.034;7.120;2023-04-02T10:22:00;101141.41;;;8.76;67.38
48015;BME280;33780;51.034;7.120;2023-04-02T10:24:27;101148.25;;;8.80;67.42
48015;BME280;33780;51.034;7.120;2023-04-02T10:46:40;101177.22;;;8.97;66.93
48015;BME280;33780;51.034;7.120;2023-04-02T10:52:19;101179.38;;;9.05;66.48
48015;BME280;33780;51.034;7.120;2023-04-02T10:54:54;101184.25;;;9.11;65.88
48015;BME280;33780;51.034;7.120;2023-04-02T10:57:35;101183.84;;;9.17;65.37
48015;BME280;33780;51.034;7.120;2023-04-02T11:00:13;101193.22;;;9.23;66.26
48015;BME280;33780;51.034;7.120;2023-04-02T11:03:13;101200.25;;;9.24;66.20
48015;BME280;33780;51.034;7.120;2023-04-02T11:05:52;101201.72;;;9.28;65.86
48015;BME280;33780;51.034;7.120;2023-04-02T11:08:25;101211.22;;;9.32;65.78
48015;BME280;33780;51.034;7.120;2023-04-02T11:11:01;101222.34;;;9.26;64.86
48015;BME280;33780;51.034;7.120;2023-04-02T11:16:31;101245.25;;;9.17;65.35
48015;BME280;33780;51.034;7.120;2023-04-02T11:21:45;101244.81;;;9.23;65.74
48015;BME280;33780;51.034;7.120;2023-04-02T11:27:37;101257.41;;;9.08;64.40
48015;BME280;33780;51.034;7.120;2023-04-02T11:30:24;101261.06;;;9.07;65.53
48015;BME280;33780;51.034;7.120;2023-04-02T11:32:52;101260.94;;;9.09;65.58
48015;BME280;33780;51.034;7.120;2023-04-02T11:40:50;101279.41;;;9.12;65.29
48015;BME280;33780;51.034;7.120;2023-04-02T11:46:01;101282.19;;;9.11;64.55
48015;BME280;33780;51.034;7.120;2023-04-02T11:48:30;101277.75;;;8.98;64.16
48015;BME280;33780;51.034;7.120;2023-04-02T11:50:58;101286.91;;;8.94;64.29
48015;BME280;33780;51.034;7.120;2023-04-02T11:53:32;101287.88;;;8.93;64.95
48015;BME280;33780;51.034;7.120;2023-04-02T11:56:17;101295.88;;;8.93;64.24
48015;BME280;33780;51.034;7.120;2023-04-02T12:01:28;101292.47;;;8.91;64.73
48015;BME280;33780;51.034;7.120;2023-04-02T12:04:22;101292.25;;;8.94;64.94
48015;BME280;33780;51.034;7.120;2023-04-02T12:09:46;101291.16;;;8.97;63.80
48015;BME280;33780;51.034;7.120;2023-04-02T12:14:50;101301.66;;;9.00;64.17
48015;BME280;33780;51.034;7.120;2023-04-02T12:17:30;101310.94;;;9.07;64.96
48015;BME280;33780;51.034;7.120;2023-04-02T12:22:35;101313.38;;;9.10;63.98
48015;BME280;33780;51.034;7.120;2023-04-02T12:25:35;101326.41;;;9.15;64.24
48015;BME280;33780;51.034;7.120;2023-04-02T12:28:15;101328.88;;;9.18;63.31
48015;BME280;33780;51.034;7.120;2023-04-02T12:30:46;101321.84;;;9.17;63.05
48015;BME280;33780;51.034;7.120;2023-04-02T12:33:32;101343.28;;;9.15;63.10
48015;BME280;33780;51.034;7.120;2023-04-02T12:39:12;101345.94;;;9.28;63.81
48015;BME280;33780;51.034;7.120;2023-04-02T12:41:39;101348.00;;;9.37;64.25
48015;BME280;33780;51.034;7.120;2023-04-02T12:44:11;101344.75;;;9.45;64.17
48015;BME280;33780;51.034;7.120;2023-04-02T12:46:39;101346.97;;;9.51;62.99
48015;BME280;33780;51.034;7.120;2023-04-02T12:51:52;101360.56;;;9.60;63.56
48015;BME280;33780;51.034;7.120;2023-04-02T12:54:19;101352.94;;;9.67;61.77
48015;BME280;33780;51.034;7.120;2023-04-02T12:56:46;101353.69;;;9.69;60.92
48015;BME280;33780;51.034;7.120;2023-04-02T12:59:32;101351.31;;;9.77;62.41
48015;BME280;33780;51.034;7.120;2023-04-02T13:02:15;101363.16;;;9.86;61.84
48015;BME280;33780;51.034;7.120;2023-04-02T13:04:52;101360.69;;;9.95;61.79
48015;BME280;33780;51.034;7.120;2023-04-02T13:07:20;101348.25;;;10.07;63.09
48015;BME280;33780;51.034;7.120;2023-04-02T13:09:48;101360.41;;;10.11;59.90
48015;BME280;33780;51.034;7.120;2023-04-02T13:12:32;101363.72;;;10.15;60.07
48015;BME280;33780;51.034;7.120;2023-04-02T13:15:01;101364.34;;;10.18;61.50
48015;BME280;33780;51.034;7.120;2023-04-02T13:17:46;101358.34;;;10.27;62.18
48015;BME280;33780;51.034;7.120;2023-04-02T13:20:35;101365.78;;;10.35;60.18
48015;BME280;33780;51.034;7.120;2023-04-02T13:25:54;101373.94;;;10.34;60.76
48015;BME280;33780;51.034;7.120;2023-04-02T13:28:20;101369.56;;;10.33;60.78
48015;BME280;33780;51.034;7.120;2023-04-02T13:30:46;101372.56;;;10.28;60.00
48015;BME280;33780;51.034;7.120;2023-04-02T13:33:12;101374.28;;;10.29;60.50
48015;BME280;33780;51.034;7.120;2023-04-02T13:35:38;101384.50;;;10.35;61.19
48015;BME280;33780;51.034;7.120;2023-04-02T13:38:03;101383.44;;;10.38;59.79
48015;BME280;33780;51.034;7.120;2023-04-02T13:40:31;101387.44;;;10.32;58.34
48015;BME280;33780;51.034;7.120;2023-04-02T13:42:57;101381.22;;;10.19;58.47
48015;BME280;33780;51.034;7.120;2023-04-02T13:45:25;101394.09;;;10.26;60.04
48015;BME280;33780;51.034;7.120;2023-04-02T13:47:51;101393.41;;;10.36;60.46
48015;BME280;33780;51.034;7.120;2023-04-02T13:50:19;101399.16;;;10.42;59.17
48015;BME280;33780;51.034;7.120;2023-04-02T13:52:45;101402.16;;;10.38;58.16
48015;BME280;33780;51.034;7.120;2023-04-02T13:55:12;101411.69;;;10.42;58.99
48015;BME280;33780;51.034;7.120;2023-04-02T13:57:39;101416.63;;;10.35;58.62
48015;BME280;33780;51.034;7.120;2023-04-02T14:00:05;101413.94;;;10.35;58.27
48015;BME280;33780;51.034;7.120;2023-04-02T14:02:31;101418.88;;;10.41;58.65
48015;BME280;33780;51.034;7.120;2023-04-02T14:05:15;101420.34;;;10.45;56.78
48015;BME280;33780;51.034;7.120;2023-04-02T14:10:42;101437.59;;;10.41;55.92
48015;BME280;33780;51.034;7.120;2023-04-02T14:13:34;101433.75;;;10.33;56.64
48015;BME280;33780;51.034;7.120;2023-04-02T14:16:18;101449.19;;;10.29;57.04
48015;BME280;33780;51.034;7.120;2023-04-02T14:21:58;101448.44;;;10.27;55.52
48015;BME280;33780;51.034;7.120;2023-04-02T14:24:47;101453.34;;;10.33;56.91
48015;BME280;33780;51.034;7.120;2023-04-02T14:27:28;101457.56;;;10.24;55.53
48015;BME280;33780;51.034;7.120;2023-04-02T14:30:03;101477.31;;;10.22;56.54
48015;BME280;33780;51.034;7.120;2023-04-02T14:35:37;101488.28;;;10.06;54.91
48015;BME280;33780;51.034;7.120;2023-04-02T14:40:47;101493.06;;;10.01;56.62
48015;BME280;33780;51.034;7.120;2023-04-02T14:43:22;101505.69;;;9.86;55.69
48015;BME280;33780;51.034;7.120;2023-04-02T14:50:50;101514.38;;;9.77;57.21
48015;BME280;33780;51.034;7.120;2023-04-02T14:53:28;101511.91;;;9.74;57.61
48015;BME280;33780;51.034;7.120;2023-04-02T14:55:56;101519.19;;;9.72;56.86
48015;BME280;33780;51.034;7.120;2023-04-02T14:58:30;101524.94;;;9.66;56.22
48015;BME280;33780;51.034;7.120;2023-04-02T15:01:02;101531.34;;;9.63;57.36
48015;BME280;33780;51.034;7.120;2023-04-02T15:03:57;101534.88;;;9.64;57.63
48015;BME280;33780;51.034;7.120;2023-04-02T15:06:30;101536.50;;;9.66;57.56
48015;BME280;33780;51.034;7.120;2023-04-02T15:09:03;101539.38;;;9.63;56.83
48015;BME280;33780;51.034;7.120;2023-04-02T15:11:50;101536.03;;;9.47;55.30
48015;BME280;33780;51.034;7.120;2023-04-02T15:14:22;101535.72;;;9.39;56.31
48015;BME280;33780;51.034;7.120;2023-04-02T15:16:50;101535.63;;;9.41;57.21
48015;BME280;33780;51.034;7.120;2023-04-02T15:19:16;101548.00;;;9.42;55.52
48015;BME280;33780;51.034;7.120;2023-04-02T15:30:19;101555.94;;;9.68;56.79
48015;BME280;33780;51.034;7.120;2023-04-02T15:32:48;101566.03;;;9.78;56.82
48015;BME280;33780;51.034;7.120;2023-04-02T15:35:21;101558.75;;;9.80;53.91
48015;BME280;33780;51.034;7.120;2023-04-02T15:40:49;101564.09;;;9.80;53.22
48015;BME280;33780;51.034;7.120;2023-04-02T15:43:34;101563.97;;;9.81;54.76
48015;BME280;33780;51.034;7.120;2023-04-02T15:51:31;101576.28;;;9.71;53.08
48015;BME280;33780;51.034;7.120;2023-04-02T16:00:18;101594.31;;;9.67;53.16
48015;BME280;33780;51.034;7.120;2023-04-02T16:05:57;101598.72;;;9.68;52.92
48015;BME280;33780;51.034;7.120;2023-04-02T16:08:49;101598.53;;;9.72;52.80
48015;BME280;33780;51.034;7.120;2023-04-02T16:11:22;101603.66;;;9.75;53.98
48015;BME280;33780;51.034;7.120;2023-04-02T16:13:48;101607.81;;;9.79;53.76